sensor_id;sensor_type;location;lat;lon;timestamp;P1;durP1;ratioP1;P2;durP2;ratioP2
17345;SDS011;8790;53.590;10.002;2023-04-09T00:00:12;63.17;;;39.77;;
17345;SDS011;8790;53.590;10.002;2023-04-09T00:02:44;59.67;;;39.17;;
17345;SDS011;8790;53.590;10.002;2023-04-09T00:05:16;61.13;;;38.00;;
17345;SDS011;8790;53.590;10.002;2023-04-09T00:07:49;71.30;;;40.53;;
17345;SDS011;8790;53.590;10.002;2023-04-09T00:10:21;62.67;;;39.63;;
17345;SDS011;8790;53.590;10.002;2023-04-09T00:12:53;66.87;;;39.40;;
17345;SDS011;8790;53.590;10.002;2023-04-09T00:15:24;64.07;;;39.87;;
17345;SDS011;8790;53.590;10.002;2023-04-09T00:17:56;67.87;;;41.00;;
17345;SDS011;8790;53.590;10.002;2023-04-09T00:20:28;68.00;;;40.77;;
17345;SDS011;8790;53.590;10.002;2023-04-09T00:23:01;67.30;;;40.80;;
17345;SDS011;8790;53.590;10.002;2023-04-09T00:25:33;67.57;;;41.13;;
17345;SDS011;8790;53.590;10.002;2023-04-09T00:28:05;69.00;;;40.43;;
17345;SDS011;8790;53.590;10.002;2023-04-09T00:30:37;60.43;;;38.90;;
17345;SDS011;8790;53.590;10.002;2023-04-09T00:33:08;67.10;;;39.53;;
17345;SDS011;8790;53.590;10.002;2023-04-09T00:35:40;73.67;;;40.67;;
17345;SDS011;8790;53.590;10.002;2023-04-09T00:38:13;67.43;;;39.83;;
17345;SDS011;8790;53.590;10.002;2023-04-09T00:40:47;66.30;;;41.40;;
17345;SDS011;8790;53.590;10.002;2023-04-09T00:43:19;72.90;;;41.43;;
17345;SDS011;8790;53.590;10.002;2023-04-09T00:45:51;72.50;;;41.23;;
17345;SDS011;8790;53.590;10.002;2023-04-09T00:48:23;65.93;;;40.17;;
17345;SDS011;8790;53.590;10.002;2023-04-09T00:50:55;70.37;;;40.77;;
17345;SDS011;8790;53.590;10.002;2023-04-09T00:53:28;71.60;;;40.87;;
17345;SDS011;8790;53.590;10.002;2023-04-09T00:56:00;64.37;;;40.17;;
17345;SDS011;8790;53.590;10.002;2023-04-09T00:58:32;67.90;;;39.70;;
17345;SDS011;8790;53.590;10.002;2023-04-09T01:01:03;69.90;;;40.37;;
17345;SDS011;8790;53.590;10.002;2023-04-09T01:03:35;65.73;;;40.33;;
17345;SDS011;8790;53.590;10.002;2023-04-09T01:06:09;71.57;;;41.33;;
17345;SDS011;8790;53.590;10.002;2023-04-09T01:08:48;69.87;;;40.63;;
17345;SDS011;8790;53.590;10.002;2023-04-09T01:11:31;71.47;;;40.30;;
17345;SDS011;8790;53.590;10.002;2023-04-09T01:14:11;69.77;;;39.20;;
17345;SDS011;8790;53.590;10.002;2023-04-09T01:16:51;65.73;;;39.03;;
17345;SDS011;8790;53.590;10.002;2023-04-09T01:19:31;64.93;;;38.13;;
17345;SDS011;8790;53.590;10.002;2023-04-09T01:22:22;68.77;;;38.80;;
17345;SDS011;8790;53.590;10.002;2023-04-09T01:25:06;62.13;;;37.23;;
17345;SDS011;8790;53.590;10.002;2023-04-09T01:27:52;70.70;;;37.47;;
17345;SDS011;8790;53.590;10.002;2023-04-09T01:30:30;63.50;;;37.33;;
17345;SDS011;8790;53.590;10.002;2023-04-09T01:33:02;64.40;;;36.97;;
17345;SDS011;8790;53.590;10.002;2023-04-09T01:35:36;59.37;;;36.43;;
17345;SDS011;8790;53.590;10.002;2023-04-09T01:38:07;64.23;;;35.70;;
17345;SDS011;8790;53.590;10.002;2023-04-09T01:40:41;63.20;;;35.87;;
17345;SDS011;8790;53.590;10.002;2023-04-09T01:43:13;58.67;;;34.70;;
17345;SDS011;8790;53.590;10.002;2023-04-09T01:45:47;61.40;;;34.60;;
17345;SDS011;8790;53.590;10.002;2023-04-09T01:48:20;59.03;;;35.43;;
17345;SDS011;8790;53.590;10.002;2023-04-09T01:50:53;56.80;;;33.70;;
17345;SDS011;8790;53.590;10.002;2023-04-09T01:53:25;60.10;;;35.53;;
17345;SDS011;8790;53.590;10.002;2023-04-09T01:55:57;62.63;;;35.57;;
17345;SDS011;8790;53.590;10.002;2023-04-09T01:58:29;60.90;;;33.53;;
17345;SDS011;8790;53.590;10.002;2023-04-09T02:01:05;60.63;;;35.83;;
17345;SDS011;8790;53.590;10.002;2023-04-09T02:03:43;60.67;;;34.30;;
17345;SDS011;8790;53.590;10.002;2023-04-09T02:06:19;60.40;;;34.53;;
17345;SDS011;8790;53.590;10.002;2023-04-09T02:08:57;60.13;;;35.10;;
17345;SDS011;8790;53.590;10.002;2023-04-09T02:11:31;63.83;;;35.03;;
17345;SDS011;8790;53.590;10.002;2023-04-09T02:14:04;61.53;;;33.90;;
17345;SDS011;8790;53.590;10.002;2023-04-09T02:16:39;59.07;;;34.27;;
17345;SDS011;8790;53.590;10.002;2023-04-09T02:19:11;60.83;;;34.57;;
17345;SDS011;8790;53.590;10.002;2023-04-09T02:21:43;60.37;;;35.57;;
17345;SDS011;8790;53.590;10.002;2023-04-09T02:24:16;57.47;;;33.93;;
17345;SDS011;8790;53.590;10.002;2023-04-09T02:26:47;59.10;;;34.00;;
17345;SDS011;8790;53.590;10.002;2023-04-09T02:29:19;57.80;;;34.23;;
17345;SDS011;8790;53.590;10.002;2023-04-09T02:31:52;61.63;;;33.67;;
17345;SDS011;8790;53.590;10.002;2023-04-09T02:34:25;59.20;;;33.27;;
17345;SDS011;8790;53.590;10.002;2023-04-09T02:36:56;59.60;;;33.57;;
17345;SDS011;8790;53.590;10.002;2023-04-09T02:39:28;58.00;;;32.17;;
17345;SDS011;8790;53.590;10.002;2023-04-09T02:42:00;60.60;;;33.73;;
17345;SDS011;8790;53.590;10.002;2023-04-09T02:44:32;54.53;;;33.87;;
17345;SDS011;8790;53.590;10.002;2023-04-09T02:47:05;59.07;;;34.47;;
17345;SDS011;8790;53.590;10.002;2023-04-09T02:49:38;61.47;;;33.80;;
17345;SDS011;8790;53.590;10.002;2023-04-09T02:52:10;61.53;;;33.63;;
17345;SDS011;8790;53.590;10.002;2023-04-09T02:54:42;60.87;;;34.20;;
17345;SDS011;8790;53.590;10.002;2023-04-09T02:57:13;59.53;;;32.80;;
17345;SDS011;8790;53.590;10.002;2023-04-09T02:59:45;56.87;;;32.10;;
17345;SDS011;8790;53.590;10.002;2023-04-09T03:02:18;54.37;;;32.50;;
17345;SDS011;8790;53.590;10.002;2023-04-09T03:04:50;56.80;;;33.47;;
17345;SDS011;8790;53.590;10.002;2023-04-09T03:07:22;55.67;;;33.90;;
17345;SDS011;8790;53.590;10.002;2023-04-09T03:09:54;57.53;;;32.37;;
17345;SDS011;8790;53.590;10.002;2023-04-09T03:12:27;59.43;;;32.77;;
17345;SDS011;8790;53.590;10.002;2023-04-09T03:14:58;66.73;;;34.57;;
17345;SDS011;8790;53.590;10.002;2023-04-09T03:17:31;71.00;;;35.63;;
17345;SDS011;8790;53.590;10.002;2023-04-09T03:20:03;70.23;;;36.80;;
17345;SDS011;8790;53.590;10.002;2023-04-09T03:22:40;78.63;;;37.53;;
17345;SDS011;8790;53.590;10.002;2023-04-09T03:25:23;74.57;;;36.50;;
17345;SDS011;8790;53.590;10.002;2023-04-09T03:27:57;78.03;;;37.47;;
17345;SDS011;8790;53.590;10.002;2023-04-09T03:30:38;76.73;;;37.17;;
17345;SDS011;8790;53.590;10.002;2023-04-09T03:33:11;79.80;;;38.00;;
17345;SDS011;8790;53.590;10.002;2023-04-09T03:35:56;75.10;;;37.17;;
17345;SDS011;8790;53.590;10.002;2023-04-09T03:38:54;81.03;;;38.33;;
17345;SDS011;8790;53.590;10.002;2023-04-09T03:41:34;75.67;;;36.93;;
17345;SDS011;8790;53.590;10.002;2023-04-09T03:44:13;70.93;;;35.13;;
17345;SDS011;8790;53.590;10.002;2023-04-09T03:47:08;72.37;;;36.17;;
17345;SDS011;8790;53.590;10.002;2023-04-09T03:49:43;68.03;;;35.60;;
17345;SDS011;8790;53.590;10.002;2023-04-09T03:52:23;70.30;;;35.47;;
17345;SDS011;8790;53.590;10.002;2023-04-09T03:55:06;69.00;;;35.70;;
17345;SDS011;8790;53.590;10.002;2023-04-09T03:57:40;66.27;;;34.93;;
17345;SDS011;8790;53.590;10.002;2023-04-09T04:00:16;70.07;;;35.30;;
17345;SDS011;8790;53.590;10.002;2023-04-09T04:02:54;66.87;;;35.17;;
17345;SDS011;8790;53.590;10.002;2023-04-09T04:05:47;69.67;;;35.03;;
17345;SDS011;8790;53.590;10.002;2023-04-09T04:08:20;65.33;;;34.27;;
17345;SDS011;8790;53.590;10.002;2023-04-09T04:10:52;68.93;;;34.90;;
17345;SDS011;8790;53.590;10.002;2023-04-09T04:13:24;64.30;;;34.33;;
17345;SDS011;8790;53.590;10.002;2023-04-09T04:15:59;62.53;;;33.47;;
17345;SDS011;8790;53.590;10.002;2023-04-09T04:18:31;65.97;;;33.90;;
17345;SDS011;8790;53.590;10.002;2023-04-09T04:21:04;65.33;;;34.20;;
17345;SDS011;8790;53.590;10.002;2023-04-09T04:23:43;63.47;;;34.13;;
17345;SDS011;8790;53.590;10.002;2023-04-09T04:26:28;71.80;;;35.20;;
17345;SDS011;8790;53.590;10.002;2023-04-09T04:29:00;59.80;;;33.77;;
17345;SDS011;8790;53.590;10.002;2023-04-09T04:31:50;63.17;;;33.67;;
17345;SDS011;8790;53.590;10.002;2023-04-09T04:34:24;65.10;;;34.43;;
17345;SDS011;8790;53.590;10.002;2023-04-09T04:37:14;60.60;;;33.03;;
17345;SDS011;8790;53.590;10.002;2023-04-09T04:39:46;64.60;;;34.00;;
17345;SDS011;8790;53.590;10.002;2023-04-09T04:42:20;57.60;;;33.03;;
17345;SDS011;8790;53.590;10.002;2023-04-09T04:44:52;62.87;;;32.37;;
17345;SDS011;8790;53.590;10.002;2023-04-09T04:47:43;59.63;;;31.77;;
17345;SDS011;8790;53.590;10.002;2023-04-09T04:50:15;66.13;;;33.63;;
17345;SDS011;8790;53.590;10.002;2023-04-09T04:53:02;57.93;;;31.87;;
17345;SDS011;8790;53.590;10.002;2023-04-09T04:55:41;60.03;;;33.17;;
17345;SDS011;8790;53.590;10.002;2023-04-09T04:58:17;61.73;;;32.53;;
17345;SDS011;8790;53.590;10.002;2023-04-09T05:00:54;58.67;;;33.30;;
17345;SDS011;8790;53.590;10.002;2023-04-09T05:03:26;60.77;;;32.33;;
17345;SDS011;8790;53.590;10.002;2023-04-09T05:06:21;60.60;;;32.07;;
17345;SDS011;8790;53.590;10.002;2023-04-09T05:08:54;63.13;;;33.33;;
17345;SDS011;8790;53.590;10.002;2023-04-09T05:11:28;63.27;;;33.13;;
17345;SDS011;8790;53.590;10.002;2023-04-09T05:13:59;60.00;;;32.03;;
17345;SDS011;8790;53.590;10.002;2023-04-09T05:16:31;61.67;;;32.47;;
17345;SDS011;8790;53.590;10.002;2023-04-09T05:19:08;62.67;;;33.40;;
17345;SDS011;8790;53.590;10.002;2023-04-09T05:21:41;65.07;;;34.10;;
17345;SDS011;8790;53.590;10.002;2023-04-09T05:24:15;58.13;;;32.57;;
17345;SDS011;8790;53.590;10.002;2023-04-09T05:26:47;63.07;;;35.07;;
17345;SDS011;8790;53.590;10.002;2023-04-09T05:29:18;62.23;;;34.57;;
17345;SDS011;8790;53.590;10.002;2023-04-09T05:31:50;61.17;;;32.93;;
17345;SDS011;8790;53.590;10.002;2023-04-09T05:34:36;61.13;;;33.47;;
17345;SDS011;8790;53.590;10.002;2023-04-09T05:37:08;63.93;;;33.57;;
17345;SDS011;8790;53.590;10.002;2023-04-09T05:39:41;65.37;;;34.30;;
17345;SDS011;8790;53.590;10.002;2023-04-09T05:42:13;62.67;;;33.07;;
17345;SDS011;8790;53.590;10.002;2023-04-09T05:45:11;65.57;;;34.77;;
17345;SDS011;8790;53.590;10.002;2023-04-09T05:47:50;64.23;;;34.60;;
17345;SDS011;8790;53.590;10.002;2023-04-09T05:50:25;65.37;;;34.63;;
17345;SDS011;8790;53.590;10.002;2023-04-09T05:55:44;66.67;;;34.77;;
17345;SDS011;8790;53.590;10.002;2023-04-09T05:58:16;69.63;;;35.50;;
17345;SDS011;8790;53.590;10.002;2023-04-09T06:00:50;69.77;;;35.97;;
17345;SDS011;8790;53.590;10.002;2023-04-09T06:03:23;67.90;;;35.03;;
17345;SDS011;8790;53.590;10.002;2023-04-09T06:05:54;60.17;;;33.67;;
17345;SDS011;8790;53.590;10.002;2023-04-09T06:08:26;67.10;;;33.93;;
17345;SDS011;8790;53.590;10.002;2023-04-09T06:10:59;62.23;;;33.57;;
17345;SDS011;8790;53.590;10.002;2023-04-09T06:13:32;64.97;;;34.67;;
17345;SDS011;8790;53.590;10.002;2023-04-09T06:16:04;62.77;;;33.67;;
17345;SDS011;8790;53.590;10.002;2023-04-09T06:18:36;62.60;;;34.07;;
17345;SDS011;8790;53.590;10.002;2023-04-09T06:21:08;66.70;;;34.93;;
17345;SDS011;8790;53.590;10.002;2023-04-09T06:23:39;65.70;;;35.23;;
17345;SDS011;8790;53.590;10.002;2023-04-09T06:26:12;63.67;;;33.10;;
17345;SDS011;8790;53.590;10.002;2023-04-09T06:28:44;66.50;;;34.27;;
17345;SDS011;8790;53.590;10.002;2023-04-09T06:31:16;59.43;;;32.43;;
17345;SDS011;8790;53.590;10.002;2023-04-09T06:33:48;60.57;;;33.07;;
17345;SDS011;8790;53.590;10.002;2023-04-09T06:36:19;61.37;;;32.50;;
17345;SDS011;8790;53.590;10.002;2023-04-09T06:38:52;65.40;;;33.93;;
17345;SDS011;8790;53.590;10.002;2023-04-09T06:41:25;57.97;;;31.77;;
17345;SDS011;8790;53.590;10.002;2023-04-09T06:43:57;59.53;;;32.67;;
17345;SDS011;8790;53.590;10.002;2023-04-09T06:46:29;59.70;;;32.70;;
17345;SDS011;8790;53.590;10.002;2023-04-09T06:49:00;58.53;;;31.77;;
17345;SDS011;8790;53.590;10.002;2023-04-09T06:51:32;65.50;;;33.70;;
17345;SDS011;8790;53.590;10.002;2023-04-09T06:54:04;63.23;;;34.17;;
17345;SDS011;8790;53.590;10.002;2023-04-09T06:56:37;59.10;;;32.33;;
17345;SDS011;8790;53.590;10.002;2023-04-09T06:59:09;63.90;;;33.67;;
17345;SDS011;8790;53.590;10.002;2023-04-09T07:01:41;65.27;;;33.67;;
17345;SDS011;8790;53.590;10.002;2023-04-09T07:04:14;63.77;;;33.97;;
17345;SDS011;8790;53.590;10.002;2023-04-09T07:06:46;68.07;;;34.57;;
17345;SDS011;8790;53.590;10.002;2023-04-09T07:09:18;66.90;;;35.03;;
17345;SDS011;8790;53.590;10.002;2023-04-09T07:11:51;69.43;;;34.60;;
17345;SDS011;8790;53.590;10.002;2023-04-09T07:14:22;63.53;;;33.87;;
17345;SDS011;8790;53.590;10.002;2023-04-09T07:16:54;67.47;;;34.33;;
17345;SDS011;8790;53.590;10.002;2023-04-09T07:19:26;66.67;;;34.60;;
17345;SDS011;8790;53.590;10.002;2023-04-09T07:21:58;65.63;;;33.63;;
17345;SDS011;8790;53.590;10.002;2023-04-09T07:24:29;64.23;;;32.67;;
17345;SDS011;8790;53.590;10.002;2023-04-09T07:27:03;66.50;;;33.87;;
17345;SDS011;8790;53.590;10.002;2023-04-09T07:29:35;68.50;;;33.77;;
17345;SDS011;8790;53.590;10.002;2023-04-09T07:32:07;64.43;;;32.40;;
17345;SDS011;8790;53.590;10.002;2023-04-09T07:34:39;63.63;;;33.33;;
17345;SDS011;8790;53.590;10.002;2023-04-09T07:37:10;66.83;;;32.80;;
17345;SDS011;8790;53.590;10.002;2023-04-09T07:39:42;66.63;;;33.17;;
17345;SDS011;8790;53.590;10.002;2023-04-09T07:42:15;64.27;;;32.93;;
17345;SDS011;8790;53.590;10.002;2023-04-09T07:44:47;64.60;;;33.33;;
17345;SDS011;8790;53.590;10.002;2023-04-09T07:47:20;61.77;;;32.67;;
17345;SDS011;8790;53.590;10.002;2023-04-09T07:49:51;66.00;;;34.60;;
17345;SDS011;8790;53.590;10.002;2023-04-09T07:52:23;62.83;;;32.13;;
17345;SDS011;8790;53.590;10.002;2023-04-09T07:54:55;65.20;;;31.50;;
17345;SDS011;8790;53.590;10.002;2023-04-09T07:57:28;63.53;;;32.87;;
17345;SDS011;8790;53.590;10.002;2023-04-09T08:00:01;67.70;;;33.83;;
17345;SDS011;8790;53.590;10.002;2023-04-09T08:02:43;64.43;;;32.30;;
17345;SDS011;8790;53.590;10.002;2023-04-09T08:05:15;62.47;;;32.57;;
17345;SDS011;8790;53.590;10.002;2023-04-09T08:07:46;65.90;;;32.97;;
17345;SDS011;8790;53.590;10.002;2023-04-09T08:10:18;59.00;;;31.27;;
17345;SDS011;8790;53.590;10.002;2023-04-09T08:12:51;58.43;;;31.03;;
17345;SDS011;8790;53.590;10.002;2023-04-09T08:15:23;58.23;;;30.97;;
17345;SDS011;8790;53.590;10.002;2023-04-09T08:17:55;58.37;;;30.57;;
17345;SDS011;8790;53.590;10.002;2023-04-09T08:20:27;60.13;;;30.53;;
17345;SDS011;8790;53.590;10.002;2023-04-09T08:22:59;56.90;;;30.93;;
17345;SDS011;8790;53.590;10.002;2023-04-09T08:25:31;51.13;;;27.50;;
17345;SDS011;8790;53.590;10.002;2023-04-09T08:28:04;45.67;;;26.50;;
17345;SDS011;8790;53.590;10.002;2023-04-09T08:30:36;47.50;;;25.60;;
17345;SDS011;8790;53.590;10.002;2023-04-09T08:33:08;49.33;;;27.57;;
17345;SDS011;8790;53.590;10.002;2023-04-09T08:35:39;51.93;;;28.47;;
17345;SDS011;8790;53.590;10.002;2023-04-09T08:38:11;44.73;;;26.90;;
17345;SDS011;8790;53.590;10.002;2023-04-09T08:40:44;46.30;;;26.17;;
17345;SDS011;8790;53.590;10.002;2023-04-09T08:43:17;47.43;;;26.70;;
17345;SDS011;8790;53.590;10.002;2023-04-09T08:45:50;45.33;;;26.13;;
17345;SDS011;8790;53.590;10.002;2023-04-09T08:48:22;43.20;;;24.37;;
17345;SDS011;8790;53.590;10.002;2023-04-09T08:50:55;45.27;;;25.57;;
17345;SDS011;8790;53.590;10.002;2023-04-09T08:53:27;39.37;;;24.13;;
17345;SDS011;8790;53.590;10.002;2023-04-09T08:55:58;38.93;;;21.50;;
17345;SDS011;8790;53.590;10.002;2023-04-09T08:58:32;36.77;;;21.83;;
17345;SDS011;8790;53.590;10.002;2023-04-09T09:01:04;36.30;;;22.20;;
17345;SDS011;8790;53.590;10.002;2023-04-09T09:03:52;36.90;;;21.70;;
17345;SDS011;8790;53.590;10.002;2023-04-09T09:06:26;31.30;;;20.00;;
17345;SDS011;8790;53.590;10.002;2023-04-09T09:09:06;32.13;;;19.93;;
17345;SDS011;8790;53.590;10.002;2023-04-09T09:11:39;28.47;;;18.30;;
17345;SDS011;8790;53.590;10.002;2023-04-09T09:14:14;29.50;;;19.17;;
17345;SDS011;8790;53.590;10.002;2023-04-09T09:17:01;30.73;;;19.77;;
17345;SDS011;8790;53.590;10.002;2023-04-09T09:19:34;29.80;;;19.57;;
17345;SDS011;8790;53.590;10.002;2023-04-09T09:22:06;30.87;;;19.43;;
17345;SDS011;8790;53.590;10.002;2023-04-09T09:24:44;30.03;;;19.50;;
17345;SDS011;8790;53.590;10.002;2023-04-09T09:30:18;30.83;;;19.20;;
17345;SDS011;8790;53.590;10.002;2023-04-09T09:32:51;29.20;;;18.80;;
17345;SDS011;8790;53.590;10.002;2023-04-09T09:35:23;30.23;;;19.37;;
17345;SDS011;8790;53.590;10.002;2023-04-09T09:38:01;28.43;;;19.60;;
17345;SDS011;8790;53.590;10.002;2023-04-09T09:40:34;33.57;;;22.00;;
17345;SDS011;8790;53.590;10.002;2023-04-09T09:43:06;32.57;;;21.40;;
17345;SDS011;8790;53.590;10.002;2023-04-09T09:45:39;32.93;;;22.10;;
17345;SDS011;8790;53.590;10.002;2023-04-09T09:48:12;28.93;;;20.40;;
17345;SDS011;8790;53.590;10.002;2023-04-09T09:50:44;35.83;;;23.30;;
17345;SDS011;8790;53.590;10.002;2023-04-09T09:53:17;32.27;;;21.73;;
17345;SDS011;8790;53.590;10.002;2023-04-09T09:55:52;31.50;;;21.07;;
17345;SDS011;8790;53.590;10.002;2023-04-09T09:58:29;30.63;;;21.07;;
17345;SDS011;8790;53.590;10.002;2023-04-09T10:01:08;29.90;;;21.63;;
17345;SDS011;8790;53.590;10.002;2023-04-09T10:03:43;33.90;;;23.13;;
17345;SDS011;8790;53.590;10.002;2023-04-09T10:06:16;33.87;;;23.30;;
17345;SDS011;8790;53.590;10.002;2023-04-09T10:08:48;33.47;;;23.73;;
17345;SDS011;8790;53.590;10.002;2023-04-09T10:11:21;31.10;;;21.60;;
17345;SDS011;8790;53.590;10.002;2023-04-09T10:13:55;35.80;;;25.03;;
17345;SDS011;8790;53.590;10.002;2023-04-09T10:16:29;36.50;;;25.57;;
17345;SDS011;8790;53.590;10.002;2023-04-09T10:19:01;35.77;;;25.10;;
17345;SDS011;8790;53.590;10.002;2023-04-09T10:21:35;33.67;;;24.03;;
17345;SDS011;8790;53.590;10.002;2023-04-09T10:24:12;29.57;;;20.63;;
17345;SDS011;8790;53.590;10.002;2023-04-09T10:26:46;30.73;;;19.97;;
17345;SDS011;8790;53.590;10.002;2023-04-09T10:29:24;27.43;;;19.60;;
17345;SDS011;8790;53.590;10.002;2023-04-09T10:32:04;25.57;;;18.73;;
17345;SDS011;8790;53.590;10.002;2023-04-09T10:34:37;27.53;;;18.67;;
17345;SDS011;8790;53.590;10.002;2023-04-09T10:37:12;24.40;;;19.03;;
17345;SDS011;8790;53.590;10.002;2023-04-09T10:39:46;28.80;;;20.03;;
17345;SDS011;8790;53.590;10.002;2023-04-09T10:42:19;27.53;;;19.43;;
17345;SDS011;8790;53.590;10.002;2023-04-09T10:45:04;30.40;;;19.77;;
17345;SDS011;8790;53.590;10.002;2023-04-09T10:47:39;30.20;;;20.50;;
17345;SDS011;8790;53.590;10.002;2023-04-09T10:50:13;30.10;;;20.50;;
17345;SDS011;8790;53.590;10.002;2023-04-09T10:52:50;26.43;;;19.23;;
17345;SDS011;8790;53.590;10.002;2023-04-09T10:55:31;29.07;;;20.67;;
17345;SDS011;8790;53.590;10.002;2023-04-09T10:58:05;28.37;;;19.60;;
17345;SDS011;8790;53.590;10.002;2023-04-09T11:00:38;24.77;;;18.73;;
17345;SDS011;8790;53.590;10.002;2023-04-09T11:03:22;29.40;;;21.13;;
17345;SDS011;8790;53.590;10.002;2023-04-09T11:06:00;29.97;;;21.53;;
17345;SDS011;8790;53.590;10.002;2023-04-09T11:08:35;28.83;;;20.27;;
17345;SDS011;8790;53.590;10.002;2023-04-09T11:11:08;28.33;;;20.03;;
17345;SDS011;8790;53.590;10.002;2023-04-09T11:13:40;28.33;;;20.17;;
17345;SDS011;8790;53.590;10.002;2023-04-09T11:16:12;27.90;;;19.73;;
17345;SDS011;8790;53.590;10.002;2023-04-09T11:18:46;27.97;;;19.97;;
17345;SDS011;8790;53.590;10.002;2023-04-09T11:21:18;29.93;;;20.57;;
17345;SDS011;8790;53.590;10.002;2023-04-09T11:23:50;27.23;;;19.77;;
17345;SDS011;8790;53.590;10.002;2023-04-09T11:26:22;30.27;;;19.97;;
17345;SDS011;8790;53.590;10.002;2023-04-09T11:29:04;28.00;;;18.70;;
17345;SDS011;8790;53.590;10.002;2023-04-09T11:31:37;27.27;;;20.20;;
17345;SDS011;8790;53.590;10.002;2023-04-09T11:34:10;28.40;;;19.87;;
17345;SDS011;8790;53.590;10.002;2023-04-09T11:36:42;25.13;;;18.47;;
17345;SDS011;8790;53.590;10.002;2023-04-09T11:39:13;26.03;;;18.83;;
17345;SDS011;8790;53.590;10.002;2023-04-09T11:41:45;25.70;;;18.70;;
17345;SDS011;8790;53.590;10.002;2023-04-09T11:44:17;22.63;;;17.30;;
17345;SDS011;8790;53.590;10.002;2023-04-09T11:46:50;28.87;;;19.47;;
17345;SDS011;8790;53.590;10.002;2023-04-09T11:49:24;23.50;;;18.13;;
17345;SDS011;8790;53.590;10.002;2023-04-09T11:51:56;21.63;;;16.63;;
17345;SDS011;8790;53.590;10.002;2023-04-09T11:54:30;27.20;;;19.77;;
17345;SDS011;8790;53.590;10.002;2023-04-09T11:57:03;26.33;;;19.53;;
17345;SDS011;8790;53.590;10.002;2023-04-09T11:59:37;24.47;;;18.00;;
17345;SDS011;8790;53.590;10.002;2023-04-09T12:02:10;29.23;;;21.67;;
17345;SDS011;8790;53.590;10.002;2023-04-09T12:04:49;33.80;;;25.00;;
17345;SDS011;8790;53.590;10.002;2023-04-09T12:07:20;27.27;;;20.00;;
17345;SDS011;8790;53.590;10.002;2023-04-09T12:09:52;30.20;;;24.27;;
17345;SDS011;8790;53.590;10.002;2023-04-09T12:12:24;31.70;;;24.30;;
17345;SDS011;8790;53.590;10.002;2023-04-09T12:14:56;25.00;;;19.03;;
17345;SDS011;8790;53.590;10.002;2023-04-09T12:17:28;27.83;;;21.07;;
17345;SDS011;8790;53.590;10.002;2023-04-09T12:20:05;27.07;;;21.40;;
17345;SDS011;8790;53.590;10.002;2023-04-09T12:22:38;26.40;;;19.60;;
17345;SDS011;8790;53.590;10.002;2023-04-09T12:25:10;24.50;;;19.07;;
17345;SDS011;8790;53.590;10.002;2023-04-09T12:27:42;25.43;;;19.40;;
17345;SDS011;8790;53.590;10.002;2023-04-09T12:30:13;26.80;;;21.33;;
17345;SDS011;8790;53.590;10.002;2023-04-09T12:32:45;25.33;;;20.07;;
17345;SDS011;8790;53.590;10.002;2023-04-09T12:35:18;26.83;;;21.37;;
17345;SDS011;8790;53.590;10.002;2023-04-09T12:37:50;25.80;;;20.47;;
17345;SDS011;8790;53.590;10.002;2023-04-09T12:40:22;27.53;;;21.63;;
17345;SDS011;8790;53.590;10.002;2023-04-09T12:42:54;27.00;;;21.47;;
17345;SDS011;8790;53.590;10.002;2023-04-09T12:45:26;26.63;;;20.80;;
17345;SDS011;8790;53.590;10.002;2023-04-09T12:47:58;25.00;;;20.23;;
17345;SDS011;8790;53.590;10.002;2023-04-09T12:50:31;25.53;;;19.30;;
17345;SDS011;8790;53.590;10.002;2023-04-09T12:53:02;23.03;;;18.53;;
17345;SDS011;8790;53.590;10.002;2023-04-09T12:55:34;21.67;;;17.03;;
17345;SDS011;8790;53.590;10.002;2023-04-09T12:58:06;20.63;;;16.47;;
17345;SDS011;8790;53.590;10.002;2023-04-09T13:00:37;21.57;;;16.63;;
17345;SDS011;8790;53.590;10.002;2023-04-09T13:03:09;21.53;;;16.67;;
17345;SDS011;8790;53.590;10.002;2023-04-09T13:05:42;18.20;;;15.33;;
17345;SDS011;8790;53.590;10.002;2023-04-09T13:08:14;20.70;;;15.90;;
17345;SDS011;8790;53.590;10.002;2023-04-09T13:10:46;22.33;;;17.30;;
17345;SDS011;8790;53.590;10.002;2023-04-09T13:13:18;21.03;;;16.13;;
17345;SDS011;8790;53.590;10.002;2023-04-09T13:15:50;20.93;;;17.20;;
17345;SDS011;8790;53.590;10.002;2023-04-09T13:18:22;20.70;;;16.40;;
17345;SDS011;8790;53.590;10.002;2023-04-09T13:20:55;21.50;;;17.00;;
17345;SDS011;8790;53.590;10.002;2023-04-09T13:23:26;20.10;;;17.00;;
17345;SDS011;8790;53.590;10.002;2023-04-09T13:25:58;20.60;;;16.10;;
17345;SDS011;8790;53.590;10.002;2023-04-09T13:28:30;18.73;;;15.47;;
17345;SDS011;8790;53.590;10.002;2023-04-09T13:31:02;18.20;;;15.63;;
17345;SDS011;8790;53.590;10.002;2023-04-09T13:33:34;19.97;;;15.90;;
17345;SDS011;8790;53.590;10.002;2023-04-09T13:36:07;20.47;;;16.60;;
17345;SDS011;8790;53.590;10.002;2023-04-09T13:38:39;20.67;;;16.40;;
17345;SDS011;8790;53.590;10.002;2023-04-09T13:41:10;22.13;;;16.23;;
17345;SDS011;8790;53.590;10.002;2023-04-09T13:43:42;20.73;;;15.73;;
17345;SDS011;8790;53.590;10.002;2023-04-09T13:46:14;20.63;;;16.27;;
17345;SDS011;8790;53.590;10.002;2023-04-09T13:48:46;19.60;;;15.23;;
17345;SDS011;8790;53.590;10.002;2023-04-09T13:51:19;20.93;;;16.13;;
17345;SDS011;8790;53.590;10.002;2023-04-09T13:53:50;20.60;;;16.07;;
17345;SDS011;8790;53.590;10.002;2023-04-09T13:56:22;20.93;;;16.43;;
17345;SDS011;8790;53.590;10.002;2023-04-09T13:58:54;21.07;;;16.40;;
17345;SDS011;8790;53.590;10.002;2023-04-09T14:01:26;19.27;;;15.60;;
17345;SDS011;8790;53.590;10.002;2023-04-09T14:03:57;21.40;;;16.53;;
17345;SDS011;8790;53.590;10.002;2023-04-09T14:06:31;21.03;;;16.83;;
17345;SDS011;8790;53.590;10.002;2023-04-09T14:09:02;21.63;;;16.80;;
17345;SDS011;8790;53.590;10.002;2023-04-09T14:11:34;21.87;;;16.77;;
17345;SDS011;8790;53.590;10.002;2023-04-09T14:14:06;18.33;;;14.80;;
17345;SDS011;8790;53.590;10.002;2023-04-09T14:16:38;19.63;;;15.30;;
17345;SDS011;8790;53.590;10.002;2023-04-09T14:19:10;20.30;;;16.20;;
17345;SDS011;8790;53.590;10.002;2023-04-09T14:21:43;19.90;;;16.07;;
17345;SDS011;8790;53.590;10.002;2023-04-09T14:24:15;21.00;;;16.20;;
17345;SDS011;8790;53.590;10.002;2023-04-09T14:26:49;20.37;;;16.00;;
17345;SDS011;8790;53.590;10.002;2023-04-09T14:29:22;21.70;;;16.35;;
17345;SDS011;8790;53.590;10.002;2023-04-09T14:31:53;18.25;;;15.48;;
17345;SDS011;8790;53.590;10.002;2023-04-09T14:34:25;20.25;;;15.45;;
17345;SDS011;8790;53.590;10.002;2023-04-09T14:37:00;19.63;;;15.70;;
17345;SDS011;8790;53.590;10.002;2023-04-09T14:39:32;21.50;;;16.50;;
17345;SDS011;8790;53.590;10.002;2023-04-09T14:42:04;19.42;;;15.80;;
17345;SDS011;8790;53.590;10.002;2023-04-09T14:44:36;20.95;;;16.80;;
17345;SDS011;8790;53.590;10.002;2023-04-09T14:47:07;20.70;;;16.20;;
17345;SDS011;8790;53.590;10.002;2023-04-09T14:49:39;19.92;;;16.23;;
17345;SDS011;8790;53.590;10.002;2023-04-09T14:52:12;20.63;;;16.65;;
17345;SDS011;8790;53.590;10.002;2023-04-09T14:54:44;19.92;;;16.65;;
17345;SDS011;8790;53.590;10.002;2023-04-09T14:57:16;19.58;;;15.90;;
17345;SDS011;8790;53.590;10.002;2023-04-09T14:59:47;21.73;;;16.40;;
17345;SDS011;8790;53.590;10.002;2023-04-09T15:02:19;19.73;;;16.27;;
17345;SDS011;8790;53.590;10.002;2023-04-09T15:04:51;19.20;;;15.48;;